createdAt,value
2022-12-08T00:06:46.265Z,2.2
2022-12-08T00:08:47.892Z,2.4
2022-12-08T00:17:47.051Z,2.3
2022-12-08T00:19:48.661Z,2.4
2022-12-08T00:21:50.330Z,2.3
2022-12-08T00:23:54.637Z,2.5
2022-12-08T00:25:56.323Z,2.4
2022-12-08T00:27:57.981Z,2.5
2022-12-08T00:30:02.304Z,2.5
2022-12-08T00:32:04.104Z,2.6
2022-12-08T00:34:05.614Z,2.6
2022-12-08T00:36:10.019Z,2.7
2022-12-08T00:40:13.293Z,2.6
2022-12-08T00:42:17.656Z,2.6
2022-12-08T00:44:19.326Z,2.6
2022-12-08T00:46:21.067Z,2.7
2022-12-08T00:48:25.352Z,2.6
2022-12-08T00:50:27.034Z,2.6
2022-12-08T00:52:28.675Z,2.6
2022-12-08T00:57:41.876Z,2.5
2022-12-08T01:01:45.367Z,2.6
2022-12-08T01:03:49.663Z,2.5
2022-12-08T01:05:51.242Z,2.4
2022-12-08T01:09:57.266Z,2.6
2022-12-08T01:11:58.931Z,2.6
2022-12-08T01:14:00.581Z,2.7
2022-12-08T01:19:10.238Z,2.6
2022-12-08T01:21:11.895Z,2.8
2022-12-08T01:23:13.576Z,2.9
2022-12-08T01:25:17.930Z,2.8
2022-12-08T01:27:19.592Z,2.8
2022-12-08T01:29:21.278Z,2.8
2022-12-08T01:34:26.861Z,2.8
2022-12-08T01:36:28.527Z,2.9
2022-12-08T01:38:30.222Z,2.9
2022-12-08T01:40:34.613Z,3
2022-12-08T01:42:36.270Z,2.9
2022-12-08T01:44:37.992Z,2.8
2022-12-08T01:46:42.430Z,2.9
2022-12-08T01:48:44.026Z,2.9
2022-12-08T01:50:45.680Z,3
2022-12-08T01:55:58.912Z,3
2022-12-08T01:58:00.614Z,3.1
2022-12-08T02:00:03.292Z,3
2022-12-08T02:04:08.341Z,2.9
2022-12-08T02:06:10.053Z,2.9
2022-12-08T02:08:14.496Z,3
2022-12-08T02:10:16.137Z,3
2022-12-08T02:12:17.785Z,3
2022-12-08T02:14:22.245Z,3
2022-12-08T02:16:23.913Z,3.1
2022-12-08T02:18:25.535Z,3.2
2022-12-08T02:20:29.913Z,3.1
2022-12-08T02:22:31.753Z,3.2
2022-12-08T02:24:33.298Z,3.2
2022-12-08T02:26:37.692Z,3.2
2022-12-08T02:28:39.407Z,3.2
2022-12-08T02:30:41.151Z,3.2
2022-12-08T02:34:47.161Z,3.2
2022-12-08T02:36:48.887Z,3.2
2022-12-08T02:38:53.264Z,3.1
2022-12-08T02:40:54.997Z,3.1
2022-12-08T02:42:56.670Z,3.1
2022-12-08T02:45:01.042Z,3.1
2022-12-08T02:47:02.786Z,3.1
2022-12-08T02:49:04.527Z,3.1
2022-12-08T02:54:10.827Z,3.1
2022-12-08T02:56:12.546Z,3.1
2022-12-08T02:58:14.243Z,3.1
2022-12-08T03:00:18.605Z,3
2022-12-08T03:04:22.017Z,3
2022-12-08T03:11:34.667Z,3
2022-12-08T03:13:36.384Z,3
2022-12-08T03:17:42.513Z,3.1
2022-12-08T03:19:44.186Z,3
2022-12-08T03:21:48.556Z,2.9
2022-12-08T03:23:50.398Z,3.1
2022-12-08T03:25:51.984Z,3.1
2022-12-08T03:27:56.375Z,3.1
2022-12-08T03:29:58.073Z,3.1
2022-12-08T03:34:04.149Z,3
2022-12-08T03:42:13.646Z,3
2022-12-08T03:44:15.351Z,2.9
2022-12-08T03:50:23.120Z,3
2022-12-08T03:56:30.917Z,3.1
2022-12-08T03:58:37.522Z,3.2
2022-12-08T04:00:37.007Z,3
2022-12-08T04:04:43.115Z,3.1
2022-12-08T04:06:44.784Z,3.1
2022-12-08T04:08:46.480Z,3.1
2022-12-08T04:10:50.859Z,3.1
2022-12-08T04:12:52.563Z,3.2
2022-12-08T04:14:54.290Z,3.1
2022-12-08T04:16:58.676Z,3.1
2022-12-08T04:19:00.340Z,3.1
2022-12-08T04:21:02.048Z,3.1
2022-12-08T04:23:06.433Z,3.1
2022-12-08T04:25:08.149Z,3.1
2022-12-08T04:27:09.843Z,3.2
2022-12-08T04:29:14.212Z,3.1
2022-12-08T04:31:15.955Z,3.2
2022-12-08T04:33:17.638Z,3.2
2022-12-08T04:35:22.014Z,3.2
2022-12-08T04:37:23.729Z,3.1
2022-12-08T04:39:25.423Z,3.1
2022-12-08T04:45:33.411Z,3.2
2022-12-08T04:47:37.796Z,3.1
2022-12-08T04:51:41.223Z,3.2
2022-12-08T04:53:46.641Z,3
2022-12-08T04:55:47.321Z,3.1
2022-12-08T04:57:49.024Z,3
2022-12-08T04:59:53.396Z,3.1
2022-12-08T05:01:55.269Z,3.1
2022-12-08T05:03:56.845Z,3
2022-12-08T05:11:04.262Z,3
2022-12-08T05:13:06.001Z,3.1
2022-12-08T05:15:10.387Z,3.1
2022-12-08T05:17:12.097Z,3
2022-12-08T05:19:13.811Z,3
2022-12-08T05:24:22.998Z,3.1
2022-12-08T05:26:24.678Z,3.1
2022-12-08T05:28:41.951Z,3.1
2022-12-08T05:30:30.773Z,3.1
2022-12-08T05:32:32.477Z,3
2022-12-08T05:34:34.174Z,3
2022-12-08T05:36:38.566Z,3
2022-12-08T05:38:40.264Z,3
2022-12-08T05:40:41.978Z,3
2022-12-08T05:42:46.430Z,2.9
2022-12-08T05:44:48.066Z,2.9
2022-12-08T05:46:49.779Z,2.9
2022-12-08T05:51:53.457Z,2.9
2022-12-08T05:53:55.147Z,2.9
2022-12-08T05:55:56.837Z,2.8
2022-12-08T05:58:06.226Z,2.8
2022-12-08T06:00:03.271Z,2.8
2022-12-08T06:02:04.811Z,2.8
2022-12-08T06:13:45.988Z,2.8
2022-12-08T06:15:47.689Z,2.8
2022-12-08T06:17:49.390Z,2.7
2022-12-08T06:22:56.257Z,2.8
2022-12-08T06:24:57.920Z,2.7
2022-12-08T06:26:59.602Z,2.7
2022-12-08T06:29:03.986Z,2.6
2022-12-08T06:31:05.668Z,2.6
2022-12-08T06:33:07.372Z,2.5
2022-12-08T06:35:11.718Z,2.4
2022-12-08T06:37:13.407Z,2.4
2022-12-08T06:39:15.091Z,2.5
2022-12-08T06:41:19.699Z,2.4
2022-12-08T06:45:22.883Z,2.4
2022-12-08T06:47:27.227Z,2.4
2022-12-08T06:49:28.953Z,2.4
2022-12-08T06:51:30.616Z,2.4
2022-12-08T06:55:58.781Z,2.4
2022-12-08T06:57:38.373Z,2.3
2022-12-08T06:59:42.750Z,2.3
2022-12-08T07:01:44.526Z,2.2
2022-12-08T07:03:46.133Z,2.2
2022-12-08T07:05:50.487Z,2.3
2022-12-08T07:07:52.238Z,2.3
2022-12-08T07:09:53.845Z,2.3
2022-12-08T07:11:58.204Z,2.3
2022-12-08T07:14:00.071Z,2.3
2022-12-08T07:18:05.948Z,2.3
2022-12-08T07:20:07.848Z,2.3
2022-12-08T07:26:15.344Z,2.4
2022-12-08T07:28:17.014Z,2.4
2022-12-08T07:30:21.366Z,2.4
2022-12-08T07:32:23.099Z,2.4
2022-12-08T07:34:24.747Z,2.4
2022-12-08T07:36:29.106Z,2.4
2022-12-08T07:38:30.828Z,2.4
2022-12-08T07:40:32.462Z,2.4
2022-12-08T07:42:36.820Z,2.4
2022-12-08T07:44:38.522Z,2.4
2022-12-08T07:46:40.406Z,2.4
2022-12-08T07:48:44.639Z,2.4
2022-12-08T07:50:46.253Z,2.4
2022-12-08T07:52:47.920Z,2.4
2022-12-08T07:54:52.558Z,2.5
2022-12-08T07:56:53.957Z,2.5
2022-12-08T07:58:55.650Z,2.5
2022-12-08T08:01:00.140Z,2.5
2022-12-08T08:03:01.796Z,2.5
2022-12-08T08:05:03.446Z,2.5
2022-12-08T08:07:07.755Z,2.5
2022-12-08T08:11:19.032Z,2.6
2022-12-08T08:13:15.474Z,2.6
2022-12-08T08:17:18.913Z,2.6
2022-12-08T08:19:23.184Z,2.6
2022-12-08T08:21:44.941Z,2.6
2022-12-08T08:23:26.558Z,2.6
2022-12-08T08:25:30.928Z,2.6
2022-12-08T08:27:32.627Z,2.6
2022-12-08T08:29:34.288Z,2.7
2022-12-08T08:33:40.326Z,2.7
2022-12-08T08:35:42.015Z,2.7
2022-12-08T08:37:49.168Z,2.7
2022-12-08T08:39:48.064Z,2.7
2022-12-08T08:41:49.740Z,2.7
2022-12-08T08:43:54.101Z,2.7
2022-12-08T08:45:55.839Z,2.7
2022-12-08T08:47:57.535Z,2.7
2022-12-08T08:50:02.242Z,2.7
2022-12-08T08:52:03.529Z,2.8
2022-12-08T08:54:05.216Z,2.8
2022-12-08T08:56:09.585Z,2.8
2022-12-08T08:58:11.271Z,2.8
2022-12-08T09:00:12.951Z,2.8
2022-12-08T09:04:19.096Z,2.8
2022-12-08T09:06:20.765Z,2.8
2022-12-08T09:08:25.202Z,2.9
2022-12-08T09:10:26.785Z,2.9
2022-12-08T09:12:28.457Z,2.9
2022-12-08T09:21:27.812Z,2.9
2022-12-08T09:23:35.101Z,3
2022-12-08T09:25:31.208Z,3
2022-12-08T09:33:43.343Z,3
2022-12-08T09:35:45.042Z,3
2022-12-08T09:41:52.784Z,3.1
2022-12-08T09:43:54.477Z,3
2022-12-08T09:50:02.693Z,3.2
2022-12-08T09:52:06.634Z,3.1
2022-12-08T09:54:08.325Z,3.1
2022-12-08T09:56:10.014Z,3.1
2022-12-08T09:58:14.408Z,3.1
2022-12-08T10:00:16.103Z,3.2
2022-12-08T10:02:17.978Z,3.1
2022-12-08T10:04:22.193Z,3.1
2022-12-08T10:06:23.909Z,3.2
2022-12-08T10:08:25.673Z,3.1
2022-12-08T10:10:30.013Z,3.1
2022-12-08T10:12:31.711Z,3.1
2022-12-08T10:14:33.450Z,3.2
2022-12-08T10:16:37.867Z,3.2
2022-12-08T10:18:39.480Z,3.2
2022-12-08T10:20:41.256Z,3.1
2022-12-08T10:22:45.603Z,3.1
2022-12-08T10:26:49.013Z,3.2
2022-12-08T10:28:53.402Z,3.1
2022-12-08T10:30:55.222Z,3.1
2022-12-08T10:32:56.861Z,3.1
2022-12-08T10:37:02.895Z,3.1
2022-12-08T10:39:04.579Z,3.2
2022-12-08T10:44:12.666Z,3.1
2022-12-08T10:46:14.394Z,3.2
2022-12-08T10:48:16.048Z,3.3
2022-12-08T10:50:20.439Z,3.3
2022-12-08T10:52:22.141Z,3.3
2022-12-08T10:54:23.842Z,3.3
2022-12-08T11:01:37.796Z,3.3
2022-12-08T11:03:39.373Z,3.4
2022-12-08T11:05:43.737Z,3.4
2022-12-08T11:07:45.603Z,3.4
2022-12-08T11:13:53.266Z,3.3
2022-12-08T11:22:02.837Z,3.4
2022-12-08T11:30:15.342Z,3.4
2022-12-08T11:34:18.475Z,3.4
2022-12-08T11:44:32.416Z,3.7
2022-12-08T11:46:34.244Z,3.6
2022-12-08T11:54:46.360Z,3.6
2022-12-08T11:56:48.060Z,3.7
2022-12-08T12:08:04.351Z,3.7
2022-12-08T12:10:08.749Z,3.7
2022-12-08T12:12:10.397Z,3.7
2022-12-08T12:14:12.113Z,3.6
2022-12-08T12:16:16.579Z,3.5
2022-12-08T12:18:18.250Z,3.5
2022-12-08T12:24:28.511Z,3.7
2022-12-08T12:26:27.827Z,3.6
2022-12-08T12:34:40.115Z,3.7
2022-12-08T12:36:41.820Z,3.7
2022-12-08T12:40:47.949Z,3.6
2022-12-08T12:46:55.816Z,3.6
2022-12-08T12:48:57.549Z,3.6
2022-12-08T12:50:59.281Z,3.5
2022-12-08T12:53:05.867Z,3.5
2022-12-08T12:57:07.120Z,3.5
2022-12-08T12:59:11.548Z,3.5
2022-12-08T13:01:13.556Z,3.5
2022-12-08T13:03:14.981Z,3.6
2022-12-08T13:10:29.889Z,3.5
2022-12-08T13:12:31.616Z,3.9
2022-12-08T13:14:35.953Z,3.7
2022-12-08T13:18:39.399Z,4
2022-12-08T13:23:46.925Z,4.8
2022-12-08T13:29:54.777Z,6.5
2022-12-08T13:42:57.713Z,7.5
2022-12-08T13:45:27.979Z,6.8
2022-12-08T13:47:32.699Z,6
2022-12-08T13:56:37.473Z,4.1
2022-12-08T13:57:15.542Z,3.8
2022-12-08T13:59:16.923Z,3.6
2022-12-08T14:01:21.413Z,3.6
2022-12-08T14:03:23.026Z,3.4
2022-12-08T14:05:47.638Z,3.3
2022-12-08T14:07:29.167Z,3.2
2022-12-08T14:09:30.933Z,3.2
2022-12-08T14:11:32.584Z,3.1
2022-12-08T14:13:36.964Z,3.2
2022-12-08T14:15:38.952Z,3.4
2022-12-08T14:17:40.401Z,3.6
2022-12-08T14:19:44.780Z,3.6
2022-12-08T14:21:46.498Z,3.5
2022-12-08T14:23:48.182Z,3.6
2022-12-08T14:35:29.646Z,3.5
2022-12-08T14:37:31.294Z,3
2022-12-08T14:39:32.963Z,2.9
2022-12-08T14:41:37.347Z,2.9
2022-12-08T14:43:39.042Z,2.8
2022-12-08T14:47:45.129Z,2.7
2022-12-08T14:51:48.468Z,2.6
2022-12-08T14:53:52.914Z,2.7
2022-12-08T14:55:54.555Z,2.7
2022-12-08T15:02:02.350Z,2.7
2022-12-08T15:04:03.994Z,2.7
2022-12-08T15:10:11.684Z,2.7
2022-12-08T15:16:19.434Z,2.6
2022-12-08T15:22:27.146Z,2.4
2022-12-08T15:24:31.544Z,2.4
2022-12-08T15:26:33.265Z,2.4
2022-12-08T15:28:34.889Z,2.3
2022-12-08T15:32:40.941Z,2.1
2022-12-08T15:34:42.640Z,2.1
2022-12-08T15:36:46.984Z,2
2022-12-08T15:46:58.153Z,1.8
2022-12-08T15:49:02.390Z,1.7
2022-12-08T15:51:04.086Z,1.7
2022-12-08T15:53:05.740Z,1.7
2022-12-08T15:55:10.098Z,1.7
2022-12-08T15:59:13.416Z,1.8
2022-12-08T16:01:17.812Z,1.7
2022-12-08T16:03:49.461Z,1.7
2022-12-08T16:05:46.646Z,1.8
2022-12-08T16:07:25.508Z,1.8
2022-12-08T16:12:03.730Z,1.8
2022-12-08T16:13:58.191Z,1.9
2022-12-08T16:17:36.461Z,1.9
2022-12-08T16:19:40.791Z,1.9
2022-12-08T16:22:17.657Z,2
2022-12-08T16:23:45.273Z,2
2022-12-08T16:26:17.282Z,2
2022-12-08T16:28:01.317Z,2
2022-12-08T16:29:51.822Z,1.9
2022-12-08T16:31:56.223Z,1.9
2022-12-08T16:33:57.883Z,1.8
2022-12-08T16:35:59.542Z,1.8
2022-12-08T16:38:03.906Z,1.8
2022-12-08T16:40:05.634Z,1.7
2022-12-08T16:42:07.222Z,1.7
2022-12-08T16:44:11.589Z,1.7
2022-12-08T16:48:14.879Z,1.5
2022-12-08T16:50:19.246Z,1.5
2022-12-08T16:52:20.914Z,1.6
2022-12-08T16:54:22.548Z,1.5
2022-12-08T16:56:32.527Z,1.6
2022-12-08T16:58:28.556Z,1.6
2022-12-08T17:02:34.548Z,1.6
2022-12-08T17:08:42.174Z,1.5
2022-12-08T17:10:43.838Z,1.5
2022-12-08T17:16:51.529Z,1.5
2022-12-08T17:18:53.119Z,1.4
2022-12-08T17:33:12.617Z,1.2
2022-12-08T17:35:14.234Z,1.3
2022-12-08T17:41:21.830Z,1.3
2022-12-08T17:43:25.133Z,1.4
2022-12-08T17:49:32.728Z,1.4
2022-12-08T17:57:44.608Z,1.5
2022-12-08T18:03:52.199Z,1.6
2022-12-08T18:12:01.478Z,1.7
2022-12-08T18:14:03.112Z,1.7
2022-12-08T18:16:07.482Z,1.7
2022-12-08T18:18:09.069Z,1.6
2022-12-08T18:20:10.706Z,1.6
2022-12-08T18:22:15.051Z,1.7
2022-12-08T18:24:16.687Z,1.6
2022-12-08T18:26:18.438Z,1.6
2022-12-08T18:28:22.695Z,1.7
2022-12-08T18:30:24.453Z,1.7
2022-12-08T18:32:26.105Z,1.7
2022-12-08T18:34:30.431Z,1.7
2022-12-08T18:38:33.769Z,1.7
2022-12-08T18:40:38.088Z,1.8
2022-12-08T18:42:39.726Z,1.7
2022-12-08T18:44:41.398Z,1.7
2022-12-08T18:46:45.721Z,1.7
2022-12-08T18:50:49.045Z,1.7
2022-12-08T18:52:53.386Z,1.7
2022-12-08T19:01:02.846Z,1.7
2022-12-08T19:03:04.384Z,1.7
2022-12-08T19:09:12.049Z,1.8
2022-12-08T19:11:16.404Z,1.8
2022-12-08T19:19:25.756Z,1.9
2022-12-08T19:21:27.429Z,1.8
2022-12-08T19:23:31.773Z,1.9
2022-12-08T19:25:33.443Z,1.9
2022-12-08T19:33:42.790Z,1.9
2022-12-08T19:40:55.316Z,2
2022-12-08T19:42:56.985Z,1.9
2022-12-08T19:45:01.311Z,2
2022-12-08T19:47:03.074Z,2.1
2022-12-08T19:49:04.648Z,2
2022-12-08T19:51:09.061Z,1.9
2022-12-08T19:53:10.699Z,2.1
2022-12-08T19:55:12.366Z,2.1
2022-12-08T20:03:24.452Z,2.2
2022-12-08T20:07:27.746Z,2.1
2022-12-08T20:09:32.101Z,2.2
2022-12-08T20:11:33.776Z,2.2
2022-12-08T20:25:15.170Z,2.2
2022-12-08T20:31:22.384Z,2.3
2022-12-08T20:33:23.972Z,2.4
2022-12-08T20:35:25.643Z,2.4
2022-12-08T20:37:30.242Z,2.2
2022-12-08T20:39:31.655Z,2.3
2022-12-08T20:41:38.793Z,2.3
2022-12-08T20:43:37.706Z,2.3
2022-12-08T20:45:39.409Z,2.3
2022-12-08T20:49:45.555Z,2.3
2022-12-08T20:51:47.297Z,2.2
2022-12-08T20:53:49.004Z,2.3
2022-12-08T20:55:53.296Z,2.3
2022-12-08T20:57:54.846Z,2.3
2022-12-08T20:59:56.663Z,2.2
2022-12-08T21:06:04.285Z,2.3
2022-12-08T21:12:12.220Z,2.3
2022-12-08T21:19:22.091Z,2.2
2022-12-08T21:21:23.865Z,2.2
2022-12-08T21:23:28.132Z,2.2
2022-12-08T21:25:29.807Z,2.2
2022-12-08T21:29:35.907Z,2.2
2022-12-08T21:31:37.592Z,2.2
2022-12-08T21:35:43.746Z,2.2
2022-12-08T21:37:45.335Z,2.2
2022-12-08T21:41:51.330Z,2.2
2022-12-08T21:43:52.936Z,2.3
2022-12-08T21:45:54.618Z,2.2
2022-12-08T21:47:59.181Z,2.2
2022-12-08T21:50:00.907Z,2.3
2022-12-08T21:52:02.388Z,2.3
2022-12-08T21:54:06.751Z,2.3
2022-12-08T21:56:08.450Z,2.3
2022-12-08T21:58:10.128Z,2.3
2022-12-08T22:00:14.510Z,2.4
2022-12-08T22:04:18.242Z,2.3
2022-12-08T22:06:22.230Z,2.4
2022-12-08T22:08:24.175Z,2.3
2022-12-08T22:10:25.733Z,2.4
2022-12-08T22:12:30.174Z,2.4
2022-12-08T22:14:31.664Z,2.3
2022-12-08T22:16:33.590Z,2.3
2022-12-08T22:22:41.058Z,2.3
2022-12-08T22:24:45.570Z,2.4
2022-12-08T22:26:47.193Z,2.3
2022-12-08T22:28:48.757Z,2.4
2022-12-08T22:36:08.205Z,2.3
2022-12-08T22:38:03.159Z,2.3
2022-12-08T22:40:07.805Z,2.3
2022-12-08T22:42:09.158Z,2.3
2022-12-08T22:44:11.019Z,2.3
2022-12-08T22:46:15.231Z,2.3
2022-12-08T22:48:16.941Z,2.3
2022-12-08T22:50:18.579Z,2.4
2022-12-08T22:52:22.930Z,2.3
2022-12-08T22:54:24.588Z,2.3
2022-12-08T22:56:26.493Z,2.3
2022-12-08T22:58:30.733Z,2.3
2022-12-08T23:00:32.457Z,2.3
2022-12-08T23:02:33.999Z,2.3
2022-12-08T23:04:44.825Z,2.3
2022-12-08T23:06:46.182Z,2.3
2022-12-08T23:16:01.582Z,2.3
2022-12-08T23:32:23.323Z,2.2
2022-12-08T23:34:24.924Z,2.2
2022-12-08T23:40:32.465Z,2.2
2022-12-08T23:42:34.275Z,2.2
2022-12-08T23:44:38.560Z,2.2
2022-12-08T23:48:42.157Z,2.2
2022-12-08T23:50:46.252Z,2.1
2022-12-08T23:56:54.045Z,2.1
